createdAt,value
2019-02-10T00:01:45.525Z,3.30
2019-02-10T00:04:16.472Z,2.53
2019-02-10T00:06:47.381Z,4.27
2019-02-10T00:09:18.389Z,3.00
2019-02-10T00:11:49.318Z,2.70
2019-02-10T00:14:20.362Z,1.80
2019-02-10T00:16:51.315Z,2.57
2019-02-10T00:19:22.504Z,2.50
2019-02-10T00:21:53.441Z,2.50
2019-02-10T00:24:24.352Z,3.17
2019-02-10T00:26:55.311Z,3.30
2019-02-10T00:29:26.235Z,2.50
2019-02-10T00:31:57.309Z,2.70
2019-02-10T00:34:28.311Z,1.97
2019-02-10T00:36:59.218Z,3.20
2019-02-10T00:39:30.478Z,2.57
2019-02-10T00:42:01.412Z,2.60
2019-02-10T00:44:32.312Z,3.00
2019-02-10T00:47:03.362Z,3.00
2019-02-10T00:49:34.277Z,2.57
2019-02-10T00:52:05.251Z,2.93
2019-02-10T00:54:36.134Z,2.80
2019-02-10T00:57:07.027Z,3.03
2019-02-10T00:59:37.977Z,2.10
2019-02-10T01:02:08.984Z,2.60
2019-02-10T01:04:39.931Z,2.20
2019-02-10T01:07:11.062Z,2.53
2019-02-10T01:09:42.022Z,3.30
2019-02-10T01:12:12.903Z,3.40
2019-02-10T01:14:43.803Z,2.70
2019-02-10T01:17:14.722Z,3.00
2019-02-10T01:19:45.921Z,2.50
2019-02-10T01:22:16.835Z,2.10
2019-02-10T01:24:47.770Z,2.03
2019-02-10T01:27:18.745Z,2.20
2019-02-10T01:29:49.722Z,2.50
2019-02-10T01:32:20.728Z,3.03
2019-02-10T01:34:51.672Z,2.63
2019-02-10T01:37:22.910Z,1.97
2019-02-10T01:39:54.341Z,2.50
2019-02-10T01:42:25.499Z,3.33
2019-02-10T01:44:56.434Z,2.97
2019-02-10T01:47:27.360Z,2.27
2019-02-10T01:49:58.889Z,2.27
2019-02-10T01:52:29.870Z,2.10
2019-02-10T01:55:01.098Z,2.27
2019-02-10T01:57:32.016Z,2.50
2019-02-10T02:00:03.130Z,2.90
2019-02-10T02:02:34.352Z,2.67
2019-02-10T02:05:06.892Z,2.67
2019-02-10T02:07:37.790Z,2.30
2019-02-10T02:10:11.917Z,2.37
2019-02-10T02:12:42.968Z,2.43
2019-02-10T02:15:15.552Z,2.60
2019-02-10T02:17:46.517Z,2.63
2019-02-10T02:20:17.500Z,2.47
2019-02-10T02:22:48.456Z,2.70
2019-02-10T02:25:19.394Z,2.17
2019-02-10T02:27:50.394Z,2.17
2019-02-10T02:30:21.323Z,2.27
2019-02-10T02:32:52.538Z,2.30
2019-02-10T02:35:23.734Z,2.20
2019-02-10T02:37:54.711Z,2.63
2019-02-10T02:40:25.724Z,1.97
2019-02-10T02:42:57.056Z,2.30
2019-02-10T02:45:28.318Z,2.57
2019-02-10T02:47:59.383Z,2.30
2019-02-10T02:50:30.299Z,2.43
2019-02-10T02:53:08.818Z,2.03
2019-02-10T02:55:39.709Z,3.07
2019-02-10T02:58:10.632Z,2.47
2019-02-10T03:00:41.632Z,3.33
2019-02-10T03:03:13.020Z,2.47
2019-02-10T03:05:43.965Z,2.17
2019-02-10T03:08:14.929Z,2.20
2019-02-10T03:10:45.819Z,2.40
2019-02-10T03:13:16.792Z,2.93
2019-02-10T03:15:47.773Z,2.40
2019-02-10T03:18:18.848Z,2.70
2019-02-10T03:20:50.018Z,2.63
2019-02-10T03:23:20.945Z,2.40
2019-02-10T03:25:51.902Z,2.80
2019-02-10T03:28:22.837Z,2.47
2019-02-10T03:30:53.805Z,2.30
2019-02-10T03:33:24.816Z,3.33
2019-02-10T03:35:56.038Z,2.70
2019-02-10T03:38:27.265Z,2.70
2019-02-10T03:40:58.187Z,2.77
2019-02-10T03:43:29.123Z,2.97
2019-02-10T03:46:00.031Z,3.23
2019-02-10T03:48:30.925Z,2.53
2019-02-10T03:51:01.849Z,2.40
2019-02-10T03:53:33.141Z,2.17
2019-02-10T03:56:04.085Z,3.03
2019-02-10T03:58:35.102Z,3.00
2019-02-10T04:01:06.011Z,3.33
2019-02-10T04:03:36.917Z,2.50
2019-02-10T04:06:07.853Z,3.67
2019-02-10T04:08:38.815Z,3.00
2019-02-10T04:11:09.759Z,3.13
2019-02-10T04:13:40.855Z,3.37
2019-02-10T04:16:11.771Z,2.27
2019-02-10T04:18:42.673Z,2.80
2019-02-10T04:21:13.636Z,2.60
2019-02-10T04:23:44.545Z,2.57
2019-02-10T04:26:15.430Z,2.90
2019-02-10T04:28:46.404Z,2.50
2019-02-10T04:31:17.287Z,2.70
2019-02-10T04:33:48.216Z,3.20
2019-02-10T04:36:19.198Z,2.73
2019-02-10T04:38:50.514Z,2.40
2019-02-10T04:41:21.711Z,3.03
2019-02-10T04:43:52.616Z,3.10
2019-02-10T04:46:23.573Z,2.30
2019-02-10T04:48:54.794Z,2.50
2019-02-10T04:51:25.784Z,3.73
2019-02-10T04:53:56.791Z,3.90
2019-02-10T04:56:27.685Z,3.20
2019-02-10T04:58:58.612Z,3.10
2019-02-10T05:01:29.609Z,3.40
2019-02-10T05:04:00.602Z,2.97
2019-02-10T05:06:31.512Z,3.53
2019-02-10T05:09:02.414Z,3.53
2019-02-10T05:11:33.706Z,2.70
2019-02-10T05:14:04.617Z,3.33
2019-02-10T05:16:35.504Z,3.50
2019-02-10T05:19:06.459Z,2.70
2019-02-10T05:21:37.370Z,3.20
2019-02-10T05:24:08.673Z,3.50
2019-02-10T05:26:39.556Z,3.20
2019-02-10T05:29:10.721Z,3.10
2019-02-10T05:31:41.644Z,3.47
2019-02-10T05:34:12.610Z,3.73
2019-02-10T05:36:43.557Z,2.60
2019-02-10T05:39:14.513Z,2.90
2019-02-10T05:41:45.407Z,3.47
2019-02-10T05:44:16.416Z,3.90
2019-02-10T05:46:47.333Z,3.70
2019-02-10T05:49:18.668Z,2.53
2019-02-10T05:51:49.553Z,3.80
2019-02-10T05:54:20.470Z,3.47
2019-02-10T05:56:51.407Z,3.57
2019-02-10T05:59:22.380Z,3.07
2019-02-10T06:02:32.578Z,2.97
2019-02-10T06:05:26.225Z,2.90
2019-02-10T06:07:57.255Z,3.40
2019-02-10T06:10:28.149Z,3.47
2019-02-10T06:12:59.055Z,3.80
2019-02-10T06:15:29.968Z,4.00
2019-02-10T06:18:00.853Z,2.70
2019-02-10T06:20:31.856Z,3.13
2019-02-10T06:23:02.753Z,3.87
2019-02-10T06:25:33.673Z,3.90
2019-02-10T06:28:04.601Z,3.20
2019-02-10T06:30:35.566Z,3.07
2019-02-10T06:33:06.551Z,3.20
2019-02-10T06:35:37.553Z,3.90
2019-02-10T06:38:08.454Z,4.10
2019-02-10T06:40:39.397Z,3.20
2019-02-10T06:43:10.425Z,3.37
2019-02-10T06:45:41.369Z,4.03
2019-02-10T06:48:12.535Z,3.33
2019-02-10T06:50:43.458Z,2.50
2019-02-10T06:53:14.439Z,3.10
2019-02-10T06:55:45.658Z,3.47
2019-02-10T06:58:16.668Z,3.40
2019-02-10T07:00:57.826Z,3.50
2019-02-10T07:03:58.588Z,3.50
2019-02-10T07:06:29.904Z,2.83
2019-02-10T07:09:00.880Z,3.37
2019-02-10T07:11:31.889Z,2.90
2019-02-10T07:14:04.394Z,2.40
2019-02-10T07:17:29.937Z,3.37
2019-02-10T07:20:42.416Z,3.20
2019-02-10T07:24:04.380Z,2.93
2019-02-10T07:26:58.852Z,2.97
2019-02-10T07:30:34.743Z,2.93
2019-02-10T07:33:40.667Z,2.60
2019-02-10T07:37:07.712Z,2.60
2019-02-10T07:40:23.065Z,4.47
2019-02-10T07:43:38.201Z,2.87
2019-02-10T07:46:35.250Z,2.10
2019-02-10T07:49:39.193Z,3.40
2019-02-10T07:53:03.716Z,2.63
2019-02-10T07:56:22.973Z,2.40
2019-02-10T08:00:04.290Z,2.90
2019-02-10T08:03:32.746Z,2.73
2019-02-10T08:07:13.676Z,3.10
2019-02-10T08:10:10.528Z,2.37
2019-02-10T08:13:55.407Z,2.67
2019-02-10T08:17:23.604Z,3.20
2019-02-10T08:21:08.316Z,1.90
2019-02-10T08:24:23.202Z,2.20
2019-02-10T08:27:45.678Z,2.10
2019-02-10T08:30:59.876Z,2.90
2019-02-10T08:34:18.578Z,2.10
2019-02-10T08:37:50.889Z,3.10
2019-02-10T08:40:56.252Z,3.00
2019-02-10T08:43:58.222Z,2.13
2019-02-10T08:47:33.423Z,2.20
2019-02-10T08:50:34.609Z,2.40
2019-02-10T08:53:11.737Z,2.30
2019-02-10T08:55:42.661Z,5.43
2019-02-10T08:58:13.536Z,5.63
2019-02-10T09:00:44.507Z,4.80
2019-02-10T09:03:19.503Z,11.67
2019-02-10T09:05:48.704Z,4.50
2019-02-10T09:08:19.867Z,5.83
2019-02-10T09:10:50.822Z,3.80
2019-02-10T09:13:28.194Z,4.77
2019-02-10T09:15:59.178Z,4.43
2019-02-10T09:18:30.083Z,3.90
2019-02-10T09:21:01.261Z,3.43
2019-02-10T09:23:32.232Z,3.50
2019-02-10T09:26:03.200Z,1.97
2019-02-10T09:28:34.127Z,2.00
2019-02-10T09:31:07.616Z,2.90
2019-02-10T09:33:38.525Z,2.77
2019-02-10T09:36:11.371Z,2.90
2019-02-10T09:38:42.319Z,2.80
2019-02-10T09:41:13.215Z,2.07
2019-02-10T09:43:44.180Z,1.97
2019-02-10T09:46:15.106Z,2.80
2019-02-10T09:48:46.044Z,3.27
2019-02-10T09:51:17.249Z,3.00
2019-02-10T09:53:48.253Z,2.50
2019-02-10T09:56:19.138Z,1.83
2019-02-10T09:58:50.366Z,3.10
2019-02-10T10:01:21.426Z,2.80
2019-02-10T10:03:52.326Z,1.93
2019-02-10T10:06:23.234Z,1.90
2019-02-10T10:08:54.200Z,1.80
2019-02-10T10:11:25.169Z,2.00
2019-02-10T10:13:56.442Z,2.90
2019-02-10T10:16:27.532Z,2.83
2019-02-10T10:18:58.468Z,1.77
2019-02-10T10:21:29.384Z,2.13
2019-02-10T10:24:00.316Z,1.70
2019-02-10T10:26:31.226Z,2.30
2019-02-10T10:29:02.153Z,1.83
2019-02-10T10:31:33.136Z,2.13
2019-02-10T10:34:04.069Z,2.13
2019-02-10T10:36:35.011Z,1.50
2019-02-10T10:39:07.107Z,1.63
2019-02-10T10:41:38.042Z,1.40
2019-02-10T10:44:09.285Z,1.47
2019-02-10T10:46:42.023Z,3.33
2019-02-10T10:49:13.046Z,3.00
2019-02-10T10:51:43.920Z,2.83
2019-02-10T10:54:14.934Z,3.80
2019-02-10T10:56:46.189Z,5.90
2019-02-10T10:59:17.497Z,6.13
2019-02-10T11:01:48.829Z,9.10
2019-02-10T11:04:19.751Z,1.97
2019-02-10T11:06:50.647Z,1.77
2019-02-10T11:09:21.608Z,1.70
2019-02-10T11:11:52.491Z,1.53
2019-02-10T11:14:24.028Z,1.30
2019-02-10T11:16:54.978Z,1.47
2019-02-10T11:19:26.189Z,1.60
2019-02-10T11:21:59.688Z,1.60
2019-02-10T11:24:30.780Z,1.20
2019-02-10T11:27:01.744Z,2.10
2019-02-10T11:29:32.976Z,1.43
2019-02-10T11:32:06.141Z,1.23
2019-02-10T11:34:37.160Z,1.57
2019-02-10T11:37:09.597Z,1.30
2019-02-10T11:39:43.850Z,1.40
2019-02-10T11:42:13.221Z,1.30
2019-02-10T11:44:44.126Z,1.43
2019-02-10T11:47:15.045Z,1.87
2019-02-10T11:49:46.251Z,1.67
2019-02-10T11:52:17.241Z,1.53
2019-02-10T11:54:48.130Z,1.10
2019-02-10T11:57:19.158Z,0.97
2019-02-10T11:59:51.192Z,1.03
2019-02-10T12:02:22.799Z,1.07
2019-02-10T12:04:54.063Z,1.10
2019-02-10T12:07:25.000Z,1.50
2019-02-10T12:09:55.991Z,1.70
2019-02-10T12:12:27.098Z,1.50
2019-02-10T12:14:59.480Z,1.03
2019-02-10T12:17:30.400Z,0.80
2019-02-10T12:20:01.282Z,1.10
2019-02-10T12:22:34.556Z,1.07
2019-02-10T12:25:05.965Z,0.97
2019-02-10T12:27:36.850Z,0.90
2019-02-10T12:30:11.787Z,0.93
2019-02-10T12:32:42.809Z,1.10
2019-02-10T12:35:14.381Z,1.33
2019-02-10T12:37:45.648Z,1.33
2019-02-10T12:40:17.428Z,1.10
2019-02-10T12:42:49.178Z,1.47
2019-02-10T12:45:20.517Z,1.33
2019-02-10T12:47:52.133Z,1.70
2019-02-10T12:50:23.020Z,1.40
2019-02-10T12:52:56.255Z,2.10
2019-02-10T12:55:29.390Z,2.27
2019-02-10T12:58:00.680Z,2.50
2019-02-10T13:00:34.220Z,2.80
2019-02-10T13:03:05.226Z,2.17
2019-02-10T13:05:36.533Z,1.33
2019-02-10T13:08:07.507Z,0.93
2019-02-10T13:10:38.802Z,1.10
2019-02-10T13:13:09.732Z,1.10
2019-02-10T13:15:40.924Z,0.90
2019-02-10T13:18:11.847Z,0.93
2019-02-10T13:20:42.775Z,1.30
2019-02-10T13:23:14.345Z,1.40
2019-02-10T13:25:45.371Z,1.00
2019-02-10T13:28:16.301Z,1.00
2019-02-10T13:30:47.509Z,1.30
2019-02-10T13:33:18.733Z,1.30
2019-02-10T13:35:49.697Z,0.70
2019-02-10T13:38:21.100Z,1.53
2019-02-10T13:40:52.265Z,0.90
2019-02-10T13:43:23.195Z,1.17
2019-02-10T13:45:54.201Z,0.73
2019-02-10T13:48:25.086Z,1.00
2019-02-10T13:50:56.283Z,0.60
2019-02-10T13:53:27.315Z,0.60
2019-02-10T13:55:58.222Z,1.30
2019-02-10T13:58:36.160Z,0.83
2019-02-10T14:01:07.106Z,0.73
2019-02-10T14:03:38.356Z,1.10
2019-02-10T14:06:09.392Z,0.97
2019-02-10T14:08:40.866Z,0.97
2019-02-10T14:11:11.797Z,0.80
2019-02-10T14:13:43.277Z,1.00
2019-02-10T14:16:14.473Z,0.90
2019-02-10T14:18:46.403Z,1.23
2019-02-10T14:21:17.539Z,0.80
2019-02-10T14:23:51.834Z,1.80
2019-02-10T14:26:23.131Z,2.70
2019-02-10T14:28:56.334Z,2.30
2019-02-10T14:31:27.592Z,1.97
2019-02-10T14:33:58.751Z,1.37
2019-02-10T14:36:29.672Z,0.83
2019-02-10T14:39:00.628Z,0.90
2019-02-10T14:41:31.505Z,0.90
2019-02-10T14:44:02.413Z,0.70
2019-02-10T14:46:33.451Z,0.70
2019-02-10T14:49:04.441Z,1.30
2019-02-10T14:51:35.398Z,0.87
2019-02-10T14:54:08.888Z,0.60
2019-02-10T14:56:39.848Z,0.80
2019-02-10T14:59:10.788Z,0.87
2019-02-10T15:01:41.765Z,0.73
2019-02-10T15:04:12.709Z,1.03
2019-02-10T15:06:43.631Z,1.70
2019-02-10T15:09:14.892Z,1.10
2019-02-10T15:11:46.135Z,1.00
2019-02-10T15:14:18.570Z,0.77
2019-02-10T15:16:49.526Z,0.70
2019-02-10T15:19:20.477Z,0.70
2019-02-10T15:21:51.739Z,1.00
2019-02-10T15:24:22.638Z,0.80
2019-02-10T15:26:53.546Z,1.27
2019-02-10T15:29:24.515Z,1.53
2019-02-10T15:31:55.400Z,2.33
2019-02-10T15:34:26.280Z,4.63
2019-02-10T15:36:58.360Z,0.97
2019-02-10T15:39:30.694Z,0.50
2019-02-10T15:42:09.248Z,0.90
2019-02-10T15:44:35.071Z,1.00
2019-02-10T15:47:05.996Z,0.87
2019-02-10T15:49:37.338Z,0.50
2019-02-10T15:52:08.258Z,1.63
2019-02-10T15:54:39.232Z,1.40
2019-02-10T15:57:10.912Z,0.77
2019-02-10T15:59:42.170Z,0.63
2019-02-10T16:02:13.405Z,0.67
2019-02-10T16:04:44.702Z,0.73
2019-02-10T16:07:15.606Z,0.60
2019-02-10T16:09:46.504Z,0.80
2019-02-10T16:12:18.432Z,0.80
2019-02-10T16:14:50.200Z,1.20
2019-02-10T16:17:21.186Z,1.33
2019-02-10T16:19:53.640Z,1.20
2019-02-10T16:22:24.899Z,1.30
2019-02-10T16:24:56.171Z,1.50
2019-02-10T16:27:27.484Z,1.30
2019-02-10T16:29:59.949Z,1.80
2019-02-10T16:32:30.991Z,1.40
2019-02-10T16:35:04.586Z,1.60
2019-02-10T16:37:39.196Z,1.60
2019-02-10T16:40:13.752Z,1.70
2019-02-10T16:42:44.849Z,1.80
2019-02-10T16:45:16.012Z,2.43
2019-02-10T16:47:46.968Z,2.20
2019-02-10T16:50:18.817Z,2.17
2019-02-10T16:52:50.086Z,2.10
2019-02-10T16:55:21.595Z,2.70
2019-02-10T16:57:54.553Z,2.80
2019-02-10T17:00:27.462Z,2.70
2019-02-10T17:02:58.389Z,3.50
2019-02-10T17:05:29.311Z,3.60
2019-02-10T17:08:00.280Z,3.00
2019-02-10T17:10:31.572Z,3.30
2019-02-10T17:13:02.565Z,3.60
2019-02-10T17:15:34.764Z,3.40
2019-02-10T17:18:05.706Z,3.53
2019-02-10T17:20:37.350Z,3.37
2019-02-10T17:23:08.615Z,3.40
2019-02-10T17:25:39.592Z,4.10
2019-02-10T17:28:11.267Z,4.20
2019-02-10T17:30:42.172Z,5.50
2019-02-10T17:33:13.152Z,6.40
2019-02-10T17:35:44.118Z,5.10
2019-02-10T17:38:15.183Z,4.37
2019-02-10T17:40:52.893Z,4.77
2019-02-10T17:43:28.162Z,4.40
2019-02-10T17:45:59.770Z,4.70
2019-02-10T17:48:30.834Z,4.97
2019-02-10T17:51:02.332Z,4.93
2019-02-10T17:53:35.053Z,4.80
2019-02-10T17:56:06.307Z,5.10
2019-02-10T17:58:37.251Z,4.97
2019-02-10T18:01:12.715Z,4.00
2019-02-10T18:03:47.350Z,3.13
2019-02-10T18:06:18.641Z,2.27
2019-02-10T18:08:51.338Z,1.97
2019-02-10T18:11:22.251Z,1.87
2019-02-10T18:13:53.224Z,2.10
2019-02-10T18:17:00.688Z,2.60
2019-02-10T18:19:42.212Z,3.00
2019-02-10T18:22:34.726Z,3.40
2019-02-10T18:25:23.327Z,2.60
2019-02-10T18:28:08.794Z,2.70
2019-02-10T18:31:01.754Z,2.47
2019-02-10T18:33:45.359Z,2.70
2019-02-10T18:36:27.254Z,2.33
2019-02-10T18:39:05.172Z,1.60
2019-02-10T18:41:53.312Z,1.80
2019-02-10T18:44:43.988Z,2.03
2019-02-10T18:47:52.960Z,2.10
2019-02-10T18:50:34.695Z,1.80
2019-02-10T18:53:24.705Z,2.07
2019-02-10T18:56:17.550Z,1.90
2019-02-10T18:59:10.408Z,1.70
2019-02-10T19:02:03.235Z,1.40
2019-02-10T19:05:04.893Z,1.60
2019-02-10T19:07:54.961Z,1.23
2019-02-10T19:10:58.446Z,1.37
2019-02-10T19:13:53.848Z,1.60
2019-02-10T19:16:44.332Z,1.73
2019-02-10T19:19:23.119Z,1.70
2019-02-10T19:22:27.716Z,2.23
2019-02-10T19:25:26.701Z,2.40
2019-02-10T19:28:29.202Z,2.00
2019-02-10T19:31:18.425Z,2.10
2019-02-10T19:34:10.118Z,2.00
2019-02-10T19:36:53.672Z,2.10
2019-02-10T19:39:50.720Z,2.13
2019-02-10T19:42:42.434Z,2.87
2019-02-10T19:45:41.273Z,2.00
2019-02-10T19:48:31.955Z,2.00
2019-02-10T19:51:24.805Z,2.37
2019-02-10T19:54:13.039Z,2.43
2019-02-10T19:57:11.752Z,2.17
2019-02-10T20:00:00.374Z,1.93
2019-02-10T20:03:05.223Z,2.20
2019-02-10T20:05:57.565Z,3.00
2019-02-10T20:08:47.906Z,3.10
2019-02-10T20:11:37.654Z,3.27
2019-02-10T20:14:27.793Z,3.60
2019-02-10T20:17:26.349Z,4.23
2019-02-10T20:20:20.855Z,4.00
2019-02-10T20:23:24.296Z,2.57
2019-02-10T20:26:14.647Z,2.17
2019-02-10T20:29:16.901Z,1.80
2019-02-10T20:32:21.723Z,1.97
2019-02-10T20:35:01.027Z,2.53
2019-02-10T20:37:52.925Z,2.40
2019-02-10T20:40:42.881Z,2.03
2019-02-10T20:43:39.067Z,1.80
2019-02-10T20:46:27.818Z,1.60
2019-02-10T20:49:08.690Z,1.70
2019-02-10T20:51:51.691Z,1.63
2019-02-10T20:54:36.505Z,1.60
2019-02-10T20:57:44.744Z,1.40
2019-02-10T21:00:34.953Z,1.53
2019-02-10T21:03:29.878Z,1.97
2019-02-10T21:06:21.435Z,1.83
2019-02-10T21:09:07.782Z,2.27
2019-02-10T21:12:10.013Z,4.10
2019-02-10T21:15:04.912Z,3.60
2019-02-10T21:18:00.439Z,2.33
2019-02-10T21:20:44.583Z,2.33
2019-02-10T21:23:28.015Z,2.80
2019-02-10T21:26:10.345Z,2.90
2019-02-10T21:29:00.151Z,2.70
2019-02-10T21:31:50.855Z,2.40
2019-02-10T21:34:46.366Z,2.27
2019-02-10T21:37:29.065Z,2.20
2019-02-10T21:40:14.500Z,2.53
2019-02-10T21:43:10.257Z,2.70
2019-02-10T21:45:55.368Z,2.40
2019-02-10T21:48:35.347Z,2.47
2019-02-10T21:51:06.897Z,2.27
2019-02-10T21:53:37.897Z,2.17
2019-02-10T21:56:09.164Z,1.80
2019-02-10T21:58:40.431Z,2.20
2019-02-10T22:01:11.966Z,1.80
2019-02-10T22:03:42.941Z,1.80
2019-02-10T22:06:13.908Z,1.70
2019-02-10T22:08:44.834Z,1.60
2019-02-10T22:11:15.761Z,1.93
2019-02-10T22:13:46.688Z,1.90
2019-02-10T22:16:17.918Z,1.90
2019-02-10T22:18:48.857Z,2.33
2019-02-10T22:21:19.736Z,2.43
2019-02-10T22:23:50.666Z,2.60
2019-02-10T22:26:21.615Z,2.37
2019-02-10T22:28:52.562Z,2.60
2019-02-10T22:31:23.763Z,2.20
2019-02-10T22:33:54.629Z,2.43
2019-02-10T22:36:25.507Z,2.30
2019-02-10T22:38:56.427Z,1.90
2019-02-10T22:41:27.393Z,2.90
2019-02-10T22:43:58.645Z,3.10
2019-02-10T22:46:29.573Z,3.00
2019-02-10T22:49:00.469Z,3.07
2019-02-10T22:51:31.464Z,4.13
2019-02-10T22:54:02.455Z,3.80
2019-02-10T22:56:33.386Z,3.63
2019-02-10T22:59:04.286Z,4.03
2019-02-10T23:01:35.644Z,5.87
2019-02-10T23:04:06.608Z,5.20
2019-02-10T23:06:37.548Z,5.50
2019-02-10T23:09:14.499Z,5.93
2019-02-10T23:11:45.409Z,6.27
2019-02-10T23:14:16.377Z,6.83
2019-02-10T23:16:47.515Z,6.70
2019-02-10T23:19:19.971Z,7.10
2019-02-10T23:21:51.010Z,9.30
2019-02-10T23:24:21.908Z,8.80
2019-02-10T23:26:53.185Z,9.27
2019-02-10T23:29:24.145Z,8.90
2019-02-10T23:31:55.031Z,9.20
2019-02-10T23:34:26.050Z,8.67
2019-02-10T23:36:57.129Z,8.57
2019-02-10T23:39:28.040Z,8.40
2019-02-10T23:41:58.958Z,8.30
2019-02-10T23:44:29.881Z,8.90
2019-02-10T23:47:00.865Z,10.10
2019-02-10T23:49:31.760Z,9.77
2019-02-10T23:52:03.029Z,9.60
2019-02-10T23:54:33.983Z,10.20
2019-02-10T23:57:04.868Z,9.13
2019-02-10T23:59:36.116Z,9.10
